createdAt,value
2018-02-04T00:00:36.076Z,997.96
2018-02-04T00:01:36.102Z,997.98
2018-02-04T00:02:36.145Z,997.96
2018-02-04T00:03:36.079Z,998.04
2018-02-04T00:04:36.213Z,998.09
2018-02-04T00:05:36.146Z,998.11
2018-02-04T00:06:36.086Z,998.09
2018-02-04T00:07:36.088Z,998.17
2018-02-04T00:08:36.149Z,998.16
2018-02-04T00:09:36.084Z,998.18
2018-02-04T00:10:36.154Z,998.21
2018-02-04T00:11:36.082Z,998.25
2018-02-04T00:12:36.084Z,998.28
2018-02-04T00:13:36.156Z,998.26
2018-02-04T00:14:36.024Z,998.26
2018-02-04T00:15:36.019Z,998.29
2018-02-04T00:16:36.031Z,998.27
2018-02-04T00:17:36.023Z,998.34
2018-02-04T00:18:36.022Z,998.31
2018-02-04T00:19:36.086Z,998.39
2018-02-04T00:20:36.022Z,998.37
2018-02-04T00:21:36.085Z,998.42
2018-02-04T00:22:36.137Z,998.45
2018-02-04T00:23:36.058Z,998.46
2018-02-04T00:24:36.243Z,998.46
2018-02-04T00:25:36.160Z,998.40
2018-02-04T00:26:36.123Z,998.46
2018-02-04T00:27:36.092Z,998.46
2018-02-04T00:28:36.160Z,998.40
2018-02-04T00:29:36.092Z,998.49
2018-02-04T00:30:36.093Z,998.47
2018-02-04T00:31:36.162Z,998.50
2018-02-04T00:32:36.164Z,998.49
2018-02-04T00:33:36.095Z,998.54
2018-02-04T00:34:36.166Z,998.56
2018-02-04T00:35:36.201Z,998.51
2018-02-04T00:36:36.103Z,998.54
2018-02-04T00:37:36.169Z,998.56
2018-02-04T00:38:36.166Z,998.59
2018-02-04T00:39:36.165Z,998.62
2018-02-04T00:40:36.166Z,998.64
2018-02-04T00:41:36.214Z,998.67
2018-02-04T00:42:36.107Z,998.65
2018-02-04T00:43:36.172Z,998.66
2018-02-04T00:44:36.100Z,998.73
2018-02-04T00:45:36.175Z,998.75
2018-02-04T00:46:36.059Z,998.75
2018-02-04T00:47:36.178Z,998.77
2018-02-04T00:48:36.104Z,998.78
2018-02-04T00:49:36.173Z,998.80
2018-02-04T00:50:36.109Z,998.82
2018-02-04T00:51:36.112Z,998.85
2018-02-04T00:52:36.173Z,998.87
2018-02-04T00:53:36.126Z,998.87
2018-02-04T00:54:36.175Z,998.86
2018-02-04T00:55:36.180Z,998.87
2018-02-04T00:56:36.109Z,998.86
2018-02-04T00:57:36.178Z,998.89
2018-02-04T00:58:36.113Z,998.89
2018-02-04T00:59:36.177Z,998.97
2018-02-04T01:00:36.112Z,998.92
2018-02-04T01:01:36.182Z,998.92
2018-02-04T01:02:36.117Z,998.96
2018-02-04T01:03:36.114Z,998.95
2018-02-04T01:04:36.180Z,998.95
2018-02-04T01:05:36.181Z,998.95
2018-02-04T01:06:36.117Z,998.94
2018-02-04T01:07:36.118Z,998.97
2018-02-04T01:08:36.185Z,998.96
2018-02-04T01:09:36.123Z,999.03
2018-02-04T01:10:36.183Z,998.98
2018-02-04T01:11:36.190Z,999.04
2018-02-04T01:12:36.188Z,999.01
2018-02-04T01:13:36.195Z,999.05
2018-02-04T01:14:36.058Z,999.02
2018-02-04T01:15:36.179Z,999.06
2018-02-04T01:16:36.178Z,999.09
2018-02-04T01:17:36.114Z,999.11
2018-02-04T01:18:36.174Z,999.08
2018-02-04T01:19:36.181Z,999.09
2018-02-04T01:20:36.182Z,999.10
2018-02-04T01:21:36.122Z,999.12
2018-02-04T01:22:36.186Z,999.13
2018-02-04T01:23:36.081Z,999.15
2018-02-04T01:24:36.096Z,999.17
2018-02-04T01:25:36.114Z,999.17
2018-02-04T01:26:36.084Z,999.18
2018-02-04T01:27:36.189Z,999.19
2018-02-04T01:28:36.102Z,999.16
2018-02-04T01:29:36.189Z,999.18
2018-02-04T01:30:36.184Z,999.18
2018-02-04T01:31:36.119Z,999.19
2018-02-04T01:32:36.102Z,999.20
2018-02-04T01:33:36.102Z,999.19
2018-02-04T01:34:36.131Z,999.22
2018-02-04T01:35:36.201Z,999.22
2018-02-04T01:36:36.146Z,999.19
2018-02-04T01:37:36.203Z,999.18
2018-02-04T01:38:36.142Z,999.24
2018-02-04T01:39:36.252Z,999.20
2018-02-04T01:40:36.137Z,999.24
2018-02-04T01:41:36.205Z,999.28
2018-02-04T01:42:36.137Z,999.28
2018-02-04T01:43:36.204Z,999.28
2018-02-04T01:44:36.060Z,999.32
2018-02-04T01:45:36.064Z,999.33
2018-02-04T01:46:36.065Z,999.35
2018-02-04T01:47:36.064Z,999.34
2018-02-04T01:48:36.153Z,999.36
2018-02-04T01:49:36.104Z,999.36
2018-02-04T01:50:36.069Z,999.37
2018-02-04T01:51:36.109Z,999.38
2018-02-04T01:52:36.064Z,999.44
2018-02-04T01:53:36.063Z,999.43
2018-02-04T01:54:36.181Z,999.44
2018-02-04T01:55:36.202Z,999.46
2018-02-04T01:56:36.208Z,999.43
2018-02-04T01:57:36.154Z,999.45
2018-02-04T01:58:36.205Z,999.48
2018-02-04T01:59:36.205Z,999.45
2018-02-04T02:00:36.085Z,999.45
2018-02-04T02:01:36.119Z,999.47
2018-02-04T02:02:36.105Z,999.48
2018-02-04T02:03:36.238Z,999.50
2018-02-04T02:04:36.154Z,999.52
2018-02-04T02:05:36.177Z,999.45
2018-02-04T02:06:36.179Z,999.54
2018-02-04T02:07:36.219Z,999.52
2018-02-04T02:08:36.228Z,999.57
2018-02-04T02:09:36.155Z,999.57
2018-02-04T02:10:36.105Z,999.57
2018-02-04T02:11:36.161Z,999.55
2018-02-04T02:12:36.242Z,999.57
2018-02-04T02:13:36.226Z,999.56
2018-02-04T02:14:36.156Z,999.60
2018-02-04T02:15:36.229Z,999.59
2018-02-04T02:16:36.158Z,999.60
2018-02-04T02:17:36.223Z,999.63
2018-02-04T02:18:36.175Z,999.66
2018-02-04T02:19:36.232Z,999.67
2018-02-04T02:20:36.163Z,999.72
2018-02-04T02:21:36.227Z,999.71
2018-02-04T02:22:36.231Z,999.74
2018-02-04T02:23:36.161Z,999.71
2018-02-04T02:24:36.230Z,999.75
2018-02-04T02:25:36.179Z,999.76
2018-02-04T02:26:36.230Z,999.74
2018-02-04T02:27:36.231Z,999.74
2018-02-04T02:28:36.161Z,999.76
2018-02-04T02:29:36.232Z,999.79
2018-02-04T02:30:36.167Z,999.81
2018-02-04T02:31:36.166Z,999.83
2018-02-04T02:32:36.234Z,999.85
2018-02-04T02:33:36.174Z,999.87
2018-02-04T02:34:36.236Z,999.88
2018-02-04T02:35:36.163Z,999.89
2018-02-04T02:36:36.185Z,999.92
2018-02-04T02:37:36.297Z,999.92
2018-02-04T02:38:36.238Z,999.92
2018-02-04T02:39:36.174Z,999.92
2018-02-04T02:40:36.266Z,999.94
2018-02-04T02:41:36.239Z,999.97
2018-02-04T02:42:36.171Z,999.93
2018-02-04T02:43:36.239Z,1000.01
2018-02-04T02:44:36.175Z,1000.01
2018-02-04T02:45:36.186Z,1000.01
2018-02-04T02:46:36.244Z,1000.03
2018-02-04T02:47:36.174Z,1000.03
2018-02-04T02:48:36.170Z,1000.02
2018-02-04T02:49:36.244Z,1000.04
2018-02-04T02:50:36.256Z,1000.04
2018-02-04T02:51:36.178Z,1000.05
2018-02-04T02:52:36.176Z,1000.05
2018-02-04T02:53:36.183Z,1000.07
2018-02-04T02:54:36.177Z,1000.06
2018-02-04T02:55:36.133Z,1000.05
2018-02-04T02:56:36.131Z,1000.09
2018-02-04T02:57:36.155Z,1000.04
2018-02-04T02:58:36.258Z,1000.14
2018-02-04T02:59:36.114Z,1000.18
2018-02-04T03:00:36.159Z,1000.20
2018-02-04T03:01:36.244Z,1000.20
2018-02-04T03:02:36.199Z,1000.20
2018-02-04T03:03:36.205Z,1000.17
2018-02-04T03:04:36.201Z,1000.20
2018-02-04T03:05:36.261Z,1000.24
2018-02-04T03:06:36.254Z,1000.26
2018-02-04T03:07:36.261Z,1000.29
2018-02-04T03:08:36.191Z,1000.30
2018-02-04T03:09:36.192Z,1000.31
2018-02-04T03:10:36.266Z,1000.34
2018-02-04T03:11:36.199Z,1000.32
2018-02-04T03:12:36.193Z,1000.33
2018-02-04T03:13:36.267Z,1000.35
2018-02-04T03:14:36.260Z,1000.36
2018-02-04T03:15:36.264Z,1000.36
2018-02-04T03:16:36.266Z,1000.41
2018-02-04T03:17:36.267Z,1000.40
2018-02-04T03:18:36.262Z,1000.41
2018-02-04T03:19:36.261Z,1000.42
2018-02-04T03:20:36.275Z,1000.47
2018-02-04T03:21:36.337Z,1000.52
2018-02-04T03:22:44.663Z,1000.57
2018-02-04T03:23:36.198Z,1000.52
2018-02-04T03:24:36.236Z,1000.56
2018-02-04T03:25:36.192Z,1000.61
2018-02-04T03:26:36.205Z,1000.60
2018-02-04T03:27:36.257Z,1000.64
2018-02-04T03:28:36.153Z,1000.67
2018-02-04T03:29:36.265Z,1000.66
2018-02-04T03:30:36.189Z,1000.70
2018-02-04T03:31:36.219Z,1000.72
2018-02-04T03:32:36.156Z,1000.71
2018-02-04T03:33:36.136Z,1000.69
2018-02-04T03:34:36.164Z,1000.73
2018-02-04T03:35:36.161Z,1000.76
2018-02-04T03:36:36.133Z,1000.76
2018-02-04T03:37:36.237Z,1000.77
2018-02-04T03:38:36.140Z,1000.81
2018-02-04T03:39:36.195Z,1000.84
2018-02-04T03:40:36.163Z,1000.87
2018-02-04T03:41:36.238Z,1000.82
2018-02-04T03:42:36.259Z,1000.88
2018-02-04T03:43:36.224Z,1000.88
2018-02-04T03:44:36.267Z,1000.94
2018-02-04T03:45:36.269Z,1000.97
2018-02-04T03:46:36.207Z,1000.96
2018-02-04T03:47:36.230Z,1000.99
2018-02-04T03:48:36.169Z,1001.06
2018-02-04T03:49:36.147Z,1001.09
2018-02-04T03:50:36.218Z,1001.11
2018-02-04T03:51:36.161Z,1001.09
2018-02-04T03:52:36.274Z,1001.14
2018-02-04T03:53:36.164Z,1001.12
2018-02-04T03:54:36.172Z,1001.14
2018-02-04T03:55:36.213Z,1001.12
2018-02-04T03:56:36.268Z,1001.14
2018-02-04T03:57:36.213Z,1001.13
2018-02-04T03:58:36.173Z,1001.17
2018-02-04T03:59:36.268Z,1001.19
2018-02-04T04:00:36.243Z,1001.18
2018-02-04T04:01:36.234Z,1001.15
2018-02-04T04:02:36.246Z,1001.23
2018-02-04T04:03:36.253Z,1001.20
2018-02-04T04:04:36.197Z,1001.25
2018-02-04T04:05:36.192Z,1001.27
2018-02-04T04:06:36.280Z,1001.26
2018-02-04T04:07:36.283Z,1001.27
2018-02-04T04:08:36.177Z,1001.31
2018-02-04T04:09:36.294Z,1001.28
2018-02-04T04:10:36.180Z,1001.33
2018-02-04T04:11:36.286Z,1001.32
2018-02-04T04:12:36.159Z,1001.29
2018-02-04T04:13:36.232Z,1001.30
2018-02-04T04:14:36.186Z,1001.34
2018-02-04T04:15:36.244Z,1001.33
2018-02-04T04:16:36.219Z,1001.35
2018-02-04T04:17:36.285Z,1001.34
2018-02-04T04:18:36.249Z,1001.38
2018-02-04T04:19:36.216Z,1001.38
2018-02-04T04:20:36.257Z,1001.40
2018-02-04T04:21:36.287Z,1001.45
2018-02-04T04:22:36.224Z,1001.44
2018-02-04T04:23:36.229Z,1001.44
2018-02-04T04:24:36.207Z,1001.51
2018-02-04T04:25:36.292Z,1001.51
2018-02-04T04:26:36.256Z,1001.48
2018-02-04T04:27:36.206Z,1001.53
2018-02-04T04:28:36.214Z,1001.54
2018-02-04T04:29:36.237Z,1001.51
2018-02-04T04:30:36.173Z,1001.60
2018-02-04T04:31:36.297Z,1001.63
2018-02-04T04:32:36.302Z,1001.65
2018-02-04T04:33:36.179Z,1001.68
2018-02-04T04:34:36.335Z,1001.67
2018-02-04T04:35:36.251Z,1001.75
2018-02-04T04:36:36.309Z,1001.73
2018-02-04T04:37:36.243Z,1001.72
2018-02-04T04:38:36.309Z,1001.73
2018-02-04T04:39:36.246Z,1001.80
2018-02-04T04:40:36.311Z,1001.76
2018-02-04T04:41:36.247Z,1001.81
2018-02-04T04:42:36.313Z,1001.81
2018-02-04T04:43:36.246Z,1001.84
2018-02-04T04:44:36.315Z,1001.84
2018-02-04T04:45:36.256Z,1001.83
2018-02-04T04:46:36.324Z,1001.86
2018-02-04T04:47:36.321Z,1001.87
2018-02-04T04:48:36.315Z,1001.91
2018-02-04T04:49:36.252Z,1001.85
2018-02-04T04:50:36.253Z,1001.86
2018-02-04T04:51:36.321Z,1001.90
2018-02-04T04:52:36.285Z,1001.91
2018-02-04T04:53:36.326Z,1001.95
2018-02-04T04:54:36.259Z,1001.97
2018-02-04T04:55:36.325Z,1001.95
2018-02-04T04:56:36.261Z,1001.96
2018-02-04T04:57:36.281Z,1001.96
2018-02-04T04:58:36.323Z,1001.98
2018-02-04T04:59:36.259Z,1002.00
2018-02-04T05:00:36.328Z,1002.03
2018-02-04T05:01:36.265Z,1002.05
2018-02-04T05:02:36.291Z,1002.03
2018-02-04T05:03:36.334Z,1002.04
2018-02-04T05:04:36.325Z,1002.07
2018-02-04T05:05:36.270Z,1002.06
2018-02-04T05:06:36.232Z,1002.11
2018-02-04T05:07:36.238Z,1002.07
2018-02-04T05:08:36.482Z,1002.09
2018-02-04T05:09:36.468Z,1002.09
2018-02-04T05:10:36.324Z,1002.09
2018-02-04T05:11:36.327Z,1002.11
2018-02-04T05:12:36.326Z,1002.13
2018-02-04T05:13:36.321Z,1002.10
2018-02-04T05:14:36.257Z,1002.11
2018-02-04T05:15:36.201Z,1002.12
2018-02-04T05:16:36.270Z,1002.13
2018-02-04T05:17:36.198Z,1002.17
2018-02-04T05:18:36.256Z,1002.20
2018-02-04T05:19:36.243Z,1002.22
2018-02-04T05:20:36.206Z,1002.22
2018-02-04T05:21:36.203Z,1002.26
2018-02-04T05:22:36.329Z,1002.29
2018-02-04T05:23:36.247Z,1002.27
2018-02-04T05:24:36.328Z,1002.30
2018-02-04T05:25:36.338Z,1002.31
2018-02-04T05:26:36.285Z,1002.31
2018-02-04T05:27:36.374Z,1002.35
2018-02-04T05:28:36.313Z,1002.38
2018-02-04T05:29:36.340Z,1002.38
2018-02-04T05:30:36.345Z,1002.38
2018-02-04T05:31:36.336Z,1002.42
2018-02-04T05:32:36.277Z,1002.43
2018-02-04T05:33:36.352Z,1002.45
2018-02-04T05:34:36.285Z,1002.52
2018-02-04T05:35:36.350Z,1002.51
2018-02-04T05:36:36.281Z,1002.48
2018-02-04T05:37:36.349Z,1002.52
2018-02-04T05:38:36.350Z,1002.55
2018-02-04T05:39:36.281Z,1002.53
2018-02-04T05:40:36.348Z,1002.57
2018-02-04T05:41:36.284Z,1002.56
2018-02-04T05:42:36.284Z,1002.60
2018-02-04T05:43:36.299Z,1002.57
2018-02-04T05:44:36.354Z,1002.59
2018-02-04T05:45:36.351Z,1002.64
2018-02-04T05:46:36.287Z,1002.63
2018-02-04T05:47:36.285Z,1002.67
2018-02-04T05:48:36.355Z,1002.69
2018-02-04T05:49:36.353Z,1002.73
2018-02-04T05:50:36.292Z,1002.71
2018-02-04T05:51:36.287Z,1002.75
2018-02-04T05:52:36.358Z,1002.78
2018-02-04T05:53:36.289Z,1002.80
2018-02-04T05:54:36.359Z,1002.84
2018-02-04T05:55:36.360Z,1002.84
2018-02-04T05:56:36.370Z,1002.88
2018-02-04T05:57:36.366Z,1002.87
2018-02-04T05:58:36.297Z,1002.93
2018-02-04T05:59:36.360Z,1002.91
2018-02-04T06:00:36.316Z,1002.99
2018-02-04T06:01:36.363Z,1003.00
2018-02-04T06:02:36.302Z,1002.98
2018-02-04T06:03:36.368Z,1003.02
2018-02-04T06:04:36.303Z,1003.00
2018-02-04T06:05:36.269Z,1003.01
2018-02-04T06:06:36.311Z,1003.01
2018-02-04T06:07:36.222Z,1003.08
2018-02-04T06:08:36.314Z,1003.09
2018-02-04T06:09:36.266Z,1003.08
2018-02-04T06:10:36.232Z,1003.08
2018-02-04T06:11:36.273Z,1003.10
2018-02-04T06:12:36.272Z,1003.13
2018-02-04T06:13:36.315Z,1003.14
2018-02-04T06:14:36.318Z,1003.13
2018-02-04T06:15:36.372Z,1003.14
2018-02-04T06:16:36.380Z,1003.17
2018-02-04T06:17:36.306Z,1003.21
2018-02-04T06:18:36.372Z,1003.20
2018-02-04T06:19:36.416Z,1003.17
2018-02-04T06:20:36.303Z,1003.18
2018-02-04T06:21:36.377Z,1003.20
2018-02-04T06:22:36.376Z,1003.23
2018-02-04T06:23:36.305Z,1003.25
2018-02-04T06:24:36.380Z,1003.28
2018-02-04T06:25:36.320Z,1003.29
2018-02-04T06:26:36.377Z,1003.32
2018-02-04T06:27:36.316Z,1003.40
2018-02-04T06:28:36.382Z,1003.37
2018-02-04T06:29:36.314Z,1003.37
2018-02-04T06:30:36.378Z,1003.41
2018-02-04T06:31:36.378Z,1003.41
2018-02-04T06:32:36.314Z,1003.41
2018-02-04T06:33:36.410Z,1003.42
2018-02-04T06:34:36.379Z,1003.48
2018-02-04T06:35:36.304Z,1003.50
2018-02-04T06:36:36.250Z,1003.50
2018-02-04T06:37:36.248Z,1003.50
2018-02-04T06:38:36.292Z,1003.50
2018-02-04T06:39:36.316Z,1003.50
2018-02-04T06:40:36.286Z,1003.50
2018-02-04T06:41:36.388Z,1003.50
2018-02-04T06:42:36.273Z,1003.50
2018-02-04T06:43:36.353Z,1003.50
2018-02-04T06:44:36.333Z,1003.50
2018-02-04T06:45:36.351Z,1003.50
2018-02-04T06:46:36.341Z,1003.50
2018-02-04T06:47:36.290Z,1003.71
2018-02-04T06:48:36.339Z,1003.71
2018-02-04T06:49:36.315Z,1003.74
2018-02-04T06:50:36.371Z,1003.73
2018-02-04T06:51:36.319Z,1003.76
2018-02-04T06:52:36.354Z,1003.80
2018-02-04T06:53:36.337Z,1003.84
2018-02-04T06:54:36.267Z,1003.84
2018-02-04T06:55:36.264Z,1003.88
2018-02-04T06:56:36.317Z,1003.89
2018-02-04T06:57:36.299Z,1003.90
2018-02-04T06:58:36.357Z,1003.97
2018-02-04T06:59:36.291Z,1003.97
2018-02-04T07:00:36.327Z,1003.99
2018-02-04T07:01:36.384Z,1004.00
2018-02-04T07:02:36.327Z,1004.01
2018-02-04T07:03:36.271Z,1004.02
2018-02-04T07:04:36.324Z,1004.03
2018-02-04T07:05:36.403Z,1004.08
2018-02-04T07:06:36.338Z,1004.14
2018-02-04T07:07:36.403Z,1004.15
2018-02-04T07:08:36.352Z,1004.13
2018-02-04T07:09:36.410Z,1004.16
2018-02-04T07:10:36.341Z,1004.18
2018-02-04T07:11:36.342Z,1004.16
2018-02-04T07:12:36.344Z,1004.20
2018-02-04T07:13:36.405Z,1004.19
2018-02-04T07:14:36.341Z,1004.24
2018-02-04T07:15:36.277Z,1004.24
2018-02-04T07:16:36.366Z,1004.29
2018-02-04T07:17:36.305Z,1004.29
2018-02-04T07:18:36.270Z,1004.35
2018-02-04T07:19:36.335Z,1004.36
2018-02-04T07:20:36.365Z,1004.35
2018-02-04T07:21:36.277Z,1004.39
2018-02-04T07:22:36.415Z,1004.40
2018-02-04T07:23:36.398Z,1004.43
2018-02-04T07:24:36.308Z,1004.46
2018-02-04T07:25:36.424Z,1004.48
2018-02-04T07:26:36.386Z,1004.46
2018-02-04T07:27:36.415Z,1004.53
2018-02-04T07:28:36.373Z,1004.57
2018-02-04T07:29:36.419Z,1004.54
2018-02-04T07:30:36.350Z,1004.58
2018-02-04T07:31:36.416Z,1004.59
2018-02-04T07:32:36.353Z,1004.59
2018-02-04T07:33:36.415Z,1004.63
2018-02-04T07:34:36.346Z,1004.63
2018-02-04T07:35:36.416Z,1004.66
2018-02-04T07:36:36.396Z,1004.66
2018-02-04T07:37:36.358Z,1004.68
2018-02-04T07:38:36.424Z,1004.65
2018-02-04T07:39:36.577Z,1004.69
2018-02-04T07:40:36.356Z,1004.73
2018-02-04T07:41:36.426Z,1004.72
2018-02-04T07:42:36.359Z,1004.75
2018-02-04T07:43:36.354Z,1004.77
2018-02-04T07:44:36.424Z,1004.83
2018-02-04T07:45:36.398Z,1004.80
2018-02-04T07:46:36.353Z,1004.85
2018-02-04T07:47:36.426Z,1004.89
2018-02-04T07:48:36.362Z,1004.86
2018-02-04T07:49:36.424Z,1004.87
2018-02-04T07:50:36.402Z,1004.88
2018-02-04T07:51:36.426Z,1004.91
2018-02-04T07:52:36.454Z,1004.94
2018-02-04T07:53:36.359Z,1004.93
2018-02-04T07:54:36.428Z,1004.98
2018-02-04T07:55:36.326Z,1005.00
2018-02-04T07:56:36.322Z,1005.00
2018-02-04T07:57:36.394Z,1005.02
2018-02-04T07:58:36.327Z,1005.02
2018-02-04T07:59:36.383Z,1005.04
2018-02-04T08:00:36.307Z,1005.08
2018-02-04T08:01:36.326Z,1005.09
2018-02-04T08:02:36.357Z,1005.10
2018-02-04T08:03:36.302Z,1005.12
2018-02-04T08:04:36.386Z,1005.14
2018-02-04T08:05:36.411Z,1005.16
2018-02-04T08:06:36.396Z,1005.19
2018-02-04T08:07:36.407Z,1005.22
2018-02-04T08:08:36.409Z,1005.23
2018-02-04T08:09:36.324Z,1005.28
2018-02-04T08:10:36.394Z,1005.25
2018-02-04T08:11:36.439Z,1005.26
2018-02-04T08:12:36.433Z,1005.32
2018-02-04T08:13:36.438Z,1005.31
2018-02-04T08:14:36.351Z,1005.32
2018-02-04T08:15:36.444Z,1005.37
2018-02-04T08:16:36.371Z,1005.37
2018-02-04T08:17:36.442Z,1005.43
2018-02-04T08:18:36.373Z,1005.42
2018-02-04T08:19:36.330Z,1005.47
2018-02-04T08:20:36.387Z,1005.48
2018-02-04T08:21:36.377Z,1005.48
2018-02-04T08:22:36.447Z,1005.47
2018-02-04T08:23:36.380Z,1005.53
2018-02-04T08:24:36.469Z,1005.50
2018-02-04T08:25:36.381Z,1005.52
2018-02-04T08:26:36.451Z,1005.53
2018-02-04T08:27:36.449Z,1005.53
2018-02-04T08:28:36.397Z,1005.60
2018-02-04T08:29:36.463Z,1005.60
2018-02-04T08:30:36.385Z,1005.64
2018-02-04T08:31:36.385Z,1005.65
2018-02-04T08:32:36.450Z,1005.66
2018-02-04T08:33:36.519Z,1005.67
2018-02-04T08:34:36.385Z,1005.67
2018-02-04T08:35:36.434Z,1005.72
2018-02-04T08:36:36.388Z,1005.71
2018-02-04T08:37:36.339Z,1005.73
2018-02-04T08:38:36.461Z,1005.70
2018-02-04T08:39:36.389Z,1005.74
2018-02-04T08:40:36.463Z,1005.76
2018-02-04T08:41:36.394Z,1005.82
2018-02-04T08:42:36.476Z,1005.79
2018-02-04T08:43:36.393Z,1005.83
2018-02-04T08:44:36.466Z,1005.84
2018-02-04T08:45:36.331Z,1005.81
2018-02-04T08:46:36.425Z,1005.80
2018-02-04T08:47:36.376Z,1005.83
2018-02-04T08:48:36.441Z,1005.88
2018-02-04T08:49:36.394Z,1005.84
2018-02-04T08:50:36.325Z,1005.86
2018-02-04T08:51:36.446Z,1005.88
2018-02-04T08:52:36.447Z,1005.92
2018-02-04T08:53:36.449Z,1005.90
2018-02-04T08:54:36.323Z,1005.96
2018-02-04T08:55:36.399Z,1005.96
2018-02-04T08:56:36.417Z,1005.96
2018-02-04T08:57:36.472Z,1005.98
2018-02-04T08:58:36.404Z,1005.99
2018-02-04T08:59:36.467Z,1006.02
2018-02-04T09:00:36.468Z,1006.04
2018-02-04T09:01:36.469Z,1005.98
2018-02-04T09:02:36.628Z,1006.03
2018-02-04T09:03:36.400Z,1006.04
2018-02-04T09:04:36.470Z,1006.05
2018-02-04T09:05:36.491Z,1006.06
2018-02-04T09:06:36.401Z,1006.10
2018-02-04T09:07:36.472Z,1006.09
2018-02-04T09:08:36.404Z,1006.11
2018-02-04T09:09:36.474Z,1006.14
2018-02-04T09:10:36.408Z,1006.13
2018-02-04T09:11:36.504Z,1006.12
2018-02-04T09:12:36.400Z,1006.17
2018-02-04T09:13:36.477Z,1006.18
2018-02-04T09:14:36.409Z,1006.22
2018-02-04T09:15:36.477Z,1006.23
2018-02-04T09:16:36.405Z,1006.27
2018-02-04T09:17:36.503Z,1006.26
2018-02-04T09:18:36.410Z,1006.23
2018-02-04T09:19:36.479Z,1006.30
2018-02-04T09:20:36.410Z,1006.34
2018-02-04T09:21:36.420Z,1006.32
2018-02-04T09:22:36.483Z,1006.31
2018-02-04T09:23:36.413Z,1006.35
2018-02-04T09:24:36.483Z,1006.32
2018-02-04T09:25:36.456Z,1006.30
2018-02-04T09:26:36.392Z,1006.32
2018-02-04T09:27:36.447Z,1006.33
2018-02-04T09:28:36.386Z,1006.31
2018-02-04T09:29:36.369Z,1006.33
2018-02-04T09:30:36.421Z,1006.35
2018-02-04T09:31:36.454Z,1006.35
2018-02-04T09:32:36.369Z,1006.36
2018-02-04T09:33:36.372Z,1006.35
2018-02-04T09:34:36.457Z,1006.39
2018-02-04T09:35:36.423Z,1006.40
2018-02-04T09:36:36.423Z,1006.38
2018-02-04T09:37:36.490Z,1006.44
2018-02-04T09:38:36.536Z,1006.47
2018-02-04T09:39:36.428Z,1006.49
2018-02-04T09:40:36.492Z,1006.48
2018-02-04T09:41:36.424Z,1006.49
2018-02-04T09:42:36.510Z,1006.51
2018-02-04T09:43:36.424Z,1006.52
2018-02-04T09:44:36.493Z,1006.56
2018-02-04T09:45:36.496Z,1006.60
2018-02-04T09:46:36.426Z,1006.56
2018-02-04T09:47:36.499Z,1006.56
2018-02-04T09:48:36.427Z,1006.62
2018-02-04T09:49:36.501Z,1006.62
2018-02-04T09:50:36.435Z,1006.61
2018-02-04T09:51:36.499Z,1006.67
2018-02-04T09:52:36.527Z,1006.63
2018-02-04T09:53:36.434Z,1006.70
2018-02-04T09:54:36.500Z,1006.72
2018-02-04T09:55:36.437Z,1006.76
2018-02-04T09:56:36.504Z,1006.78
2018-02-04T09:57:36.464Z,1006.77
2018-02-04T09:58:36.458Z,1006.78
2018-02-04T09:59:36.434Z,1006.83
2018-02-04T10:00:36.503Z,1006.84
2018-02-04T10:01:36.435Z,1006.80
2018-02-04T10:02:36.507Z,1006.86
2018-02-04T10:03:36.443Z,1006.85
2018-02-04T10:04:36.507Z,1006.89
2018-02-04T10:05:36.443Z,1006.89
2018-02-04T10:06:36.509Z,1006.92
2018-02-04T10:07:36.442Z,1006.96
2018-02-04T10:08:36.509Z,1006.99
2018-02-04T10:09:36.462Z,1007.06
2018-02-04T10:10:36.392Z,1007.05
2018-02-04T10:11:36.448Z,1007.10
2018-02-04T10:12:36.512Z,1007.08
2018-02-04T10:13:36.445Z,1007.11
2018-02-04T10:14:36.442Z,1007.12
2018-02-04T10:15:36.398Z,1007.15
2018-02-04T10:16:36.403Z,1007.16
2018-02-04T10:17:36.383Z,1007.18
2018-02-04T10:18:36.454Z,1007.12
2018-02-04T10:19:36.505Z,1007.12
2018-02-04T10:20:36.448Z,1007.13
2018-02-04T10:21:36.424Z,1007.13
2018-02-04T10:22:36.421Z,1007.22
2018-02-04T10:23:36.511Z,1007.20
2018-02-04T10:24:36.450Z,1007.21
2018-02-04T10:25:36.455Z,1007.21
2018-02-04T10:26:36.519Z,1007.25
2018-02-04T10:27:36.453Z,1007.23
2018-02-04T10:28:36.522Z,1007.25
2018-02-04T10:29:36.453Z,1007.32
2018-02-04T10:30:36.520Z,1007.30
2018-02-04T10:31:36.456Z,1007.30
2018-02-04T10:32:36.529Z,1007.33
2018-02-04T10:33:36.453Z,1007.24
2018-02-04T10:34:36.523Z,1007.26
2018-02-04T10:35:36.457Z,1007.37
2018-02-04T10:36:36.524Z,1007.37
2018-02-04T10:37:36.458Z,1007.36
2018-02-04T10:38:36.457Z,1007.31
2018-02-04T10:39:36.528Z,1007.41
2018-02-04T10:40:36.529Z,1007.43
2018-02-04T10:41:36.473Z,1007.46
2018-02-04T10:42:36.530Z,1007.46
2018-02-04T10:43:36.464Z,1007.47
2018-02-04T10:44:36.529Z,1007.45
2018-02-04T10:45:36.458Z,1007.47
2018-02-04T10:46:36.534Z,1007.48
2018-02-04T10:47:36.460Z,1007.49
2018-02-04T10:48:36.533Z,1007.51
2018-02-04T10:49:36.467Z,1007.49
2018-02-04T10:50:36.534Z,1007.51
2018-02-04T10:51:36.465Z,1007.52
2018-02-04T10:52:36.535Z,1007.54
2018-02-04T10:53:36.467Z,1007.55
2018-02-04T10:54:36.536Z,1007.58
2018-02-04T10:55:36.472Z,1007.59
2018-02-04T10:56:36.465Z,1007.60
2018-02-04T10:57:36.541Z,1007.61
2018-02-04T10:58:36.470Z,1007.59
2018-02-04T10:59:36.541Z,1007.64
2018-02-04T11:00:36.474Z,1007.70
2018-02-04T11:01:36.542Z,1007.69
2018-02-04T11:02:36.542Z,1007.66
2018-02-04T11:03:36.543Z,1007.67
2018-02-04T11:04:36.471Z,1007.72
2018-02-04T11:05:36.542Z,1007.79
2018-02-04T11:06:36.476Z,1007.72
2018-02-04T11:07:36.545Z,1007.71
2018-02-04T11:08:36.482Z,1007.73
2018-02-04T11:09:36.547Z,1007.72
2018-02-04T11:10:36.478Z,1007.77
2018-02-04T11:11:36.550Z,1007.75
2018-02-04T11:12:36.475Z,1007.81
2018-02-04T11:13:36.549Z,1007.77
2018-02-04T11:14:36.549Z,1007.81
2018-02-04T11:15:36.454Z,1007.81
2018-02-04T11:16:36.473Z,1007.86
2018-02-04T11:17:36.552Z,1007.85
2018-02-04T11:18:36.459Z,1007.86
2018-02-04T11:19:36.431Z,1007.87
2018-02-04T11:20:36.543Z,1007.85
2018-02-04T11:21:36.538Z,1007.87
2018-02-04T11:22:36.521Z,1007.92
2018-02-04T11:23:36.553Z,1007.88
2018-02-04T11:24:36.499Z,1007.84
2018-02-04T11:25:36.557Z,1007.85
2018-02-04T11:26:36.439Z,1007.88
2018-02-04T11:27:36.554Z,1007.89
2018-02-04T11:28:36.541Z,1007.94
2018-02-04T11:29:36.521Z,1007.94
2018-02-04T11:30:36.523Z,1007.97
2018-02-04T11:31:36.462Z,1007.98
2018-02-04T11:32:36.462Z,1007.94
2018-02-04T11:33:36.466Z,1007.98
2018-02-04T11:34:36.550Z,1008.00
2018-02-04T11:35:36.506Z,1007.98
2018-02-04T11:36:36.483Z,1008.02
2018-02-04T11:37:36.492Z,1008.03
2018-02-04T11:38:36.565Z,1008.09
2018-02-04T11:39:36.494Z,1008.11
2018-02-04T11:40:36.563Z,1008.14
2018-02-04T11:41:36.568Z,1008.14
2018-02-04T11:42:36.495Z,1008.16
2018-02-04T11:43:36.566Z,1008.15
2018-02-04T11:44:36.491Z,1008.16
2018-02-04T11:45:36.568Z,1008.22
2018-02-04T11:46:36.515Z,1008.23
2018-02-04T11:47:36.498Z,1008.26
2018-02-04T11:48:36.572Z,1008.24
2018-02-04T11:49:36.496Z,1008.25
2018-02-04T11:50:36.447Z,1008.24
2018-02-04T11:51:36.494Z,1008.26
2018-02-04T11:52:36.573Z,1008.30
2018-02-04T11:53:36.572Z,1008.30
2018-02-04T11:54:36.499Z,1008.32
2018-02-04T11:55:36.574Z,1008.35
2018-02-04T11:56:36.512Z,1008.34
2018-02-04T11:57:36.575Z,1008.36
2018-02-04T11:58:36.503Z,1008.39
2018-02-04T11:59:36.574Z,1008.36
2018-02-04T12:00:36.514Z,1008.34
2018-02-04T12:01:36.577Z,1008.35
2018-02-04T12:02:36.579Z,1008.39
2018-02-04T12:03:36.469Z,1008.35
2018-02-04T12:04:36.509Z,1008.41
2018-02-04T12:05:36.579Z,1008.37
2018-02-04T12:06:36.512Z,1008.37
2018-02-04T12:07:36.580Z,1008.40
2018-02-04T12:08:36.605Z,1008.41
2018-02-04T12:09:36.581Z,1008.39
2018-02-04T12:10:36.511Z,1008.39